createdAt,value
2022-08-25T00:00:08.813Z,4.40
2022-08-25T00:03:35.923Z,4.68
2022-08-25T00:07:03.471Z,4.90
2022-08-25T00:10:26.622Z,5.70
2022-08-25T00:13:57.404Z,4.55
2022-08-25T00:17:20.456Z,4.47
2022-08-25T00:20:49.096Z,5.18
2022-08-25T00:24:13.299Z,5.72
2022-08-25T00:27:36.465Z,5.65
2022-08-25T00:31:01.342Z,5.68
2022-08-25T00:34:27.380Z,6.40
2022-08-25T00:37:50.560Z,6.65
2022-08-25T00:41:17.365Z,5.90
2022-08-25T00:44:40.746Z,5.90
2022-08-25T00:48:06.119Z,6.05
2022-08-25T00:51:36.057Z,6.13
2022-08-25T00:55:07.812Z,6.50
2022-08-25T00:58:33.213Z,6.60
2022-08-25T01:01:57.253Z,6.30
2022-08-25T01:05:21.777Z,6.28
2022-08-25T01:08:45.123Z,6.13
2022-08-25T01:12:08.907Z,6.10
2022-08-25T01:15:32.500Z,5.88
2022-08-25T01:18:57.916Z,5.45
2022-08-25T01:22:22.272Z,6.05
2022-08-25T01:25:52.565Z,5.65
2022-08-25T01:29:26.236Z,5.97
2022-08-25T01:32:49.244Z,5.70
2022-08-25T01:36:12.244Z,5.50
2022-08-25T01:39:37.257Z,5.43
2022-08-25T01:43:12.941Z,5.50
2022-08-25T01:46:37.033Z,5.53
2022-08-25T01:50:00.892Z,4.50
2022-08-25T01:53:28.664Z,4.80
2022-08-25T01:56:53.054Z,4.70
2022-08-25T02:00:17.899Z,4.47
2022-08-25T02:03:44.026Z,4.90
2022-08-25T02:07:10.614Z,4.43
2022-08-25T02:10:34.232Z,5.53
2022-08-25T02:13:59.134Z,4.85
2022-08-25T02:17:22.162Z,4.65
2022-08-25T02:20:45.378Z,4.93
2022-08-25T02:24:08.976Z,4.55
2022-08-25T02:27:31.989Z,4.97
2022-08-25T02:30:58.728Z,5.97
2022-08-25T02:34:24.685Z,4.68
2022-08-25T02:37:47.686Z,4.70
2022-08-25T02:41:13.736Z,4.78
2022-08-25T02:44:36.712Z,4.00
2022-08-25T02:48:01.045Z,5.30
2022-08-25T02:51:25.836Z,5.20
2022-08-25T02:54:48.881Z,5.28
2022-08-25T02:58:11.908Z,4.50
2022-08-25T03:01:35.026Z,5.18
2022-08-25T03:05:00.586Z,5.03
2022-08-25T03:08:23.922Z,4.57
2022-08-25T03:11:47.352Z,4.88
2022-08-25T03:15:13.273Z,4.60
2022-08-25T03:18:36.336Z,4.93
2022-08-25T03:22:00.787Z,4.43
2022-08-25T03:25:41.294Z,5.07
2022-08-25T03:29:05.158Z,4.82
2022-08-25T03:32:28.232Z,5.13
2022-08-25T03:35:51.257Z,5.13
2022-08-25T03:39:15.957Z,4.70
2022-08-25T03:42:44.840Z,4.80
2022-08-25T03:46:08.138Z,5.53
2022-08-25T03:49:32.056Z,4.63
2022-08-25T03:52:58.050Z,4.47
2022-08-25T03:56:22.451Z,4.57
2022-08-25T03:59:47.237Z,4.60
2022-08-25T04:03:10.196Z,4.55
2022-08-25T04:06:33.297Z,4.95
2022-08-25T04:09:56.642Z,4.68
2022-08-25T04:13:20.981Z,4.80
2022-08-25T04:16:44.515Z,4.30
2022-08-25T04:20:09.284Z,4.60
2022-08-25T04:23:32.356Z,4.82
2022-08-25T04:26:55.784Z,4.50
2022-08-25T04:30:20.380Z,4.63
2022-08-25T04:33:43.986Z,5.18
2022-08-25T04:37:07.711Z,4.72
2022-08-25T04:40:30.765Z,4.85
2022-08-25T04:43:54.360Z,4.50
2022-08-25T04:47:18.790Z,4.70
2022-08-25T04:50:41.822Z,4.60
2022-08-25T04:54:07.401Z,4.78
2022-08-25T04:57:30.424Z,4.10
2022-08-25T05:00:53.527Z,4.63
2022-08-25T05:04:28.252Z,4.57
2022-08-25T05:07:52.141Z,6.00
2022-08-25T05:11:18.206Z,5.05
2022-08-25T05:14:41.257Z,9.30
2022-08-25T05:18:04.623Z,6.93
2022-08-25T05:21:29.695Z,5.88
2022-08-25T05:24:52.668Z,6.18
2022-08-25T05:28:15.999Z,6.65
2022-08-25T05:31:43.156Z,6.05
2022-08-25T05:35:09.104Z,6.85
2022-08-25T05:38:33.777Z,5.75
2022-08-25T05:41:56.757Z,6.38
2022-08-25T05:45:20.638Z,6.43
2022-08-25T05:48:44.205Z,6.25
2022-08-25T05:52:08.094Z,7.47
2022-08-25T05:55:32.403Z,6.35
2022-08-25T05:58:55.470Z,6.93
2022-08-25T06:02:35.963Z,6.65
2022-08-25T06:06:07.105Z,6.68
2022-08-25T06:09:30.153Z,6.45
2022-08-25T06:12:54.636Z,7.40
2022-08-25T06:16:19.782Z,8.07
2022-08-25T06:19:42.878Z,6.22
2022-08-25T06:23:06.933Z,6.82
2022-08-25T06:26:29.950Z,6.13
2022-08-25T06:29:55.111Z,6.45
2022-08-25T06:33:19.135Z,6.53
2022-08-25T06:36:42.321Z,6.00
2022-08-25T06:40:07.574Z,6.75
2022-08-25T06:43:30.657Z,6.05
2022-08-25T06:46:55.082Z,6.28
2022-08-25T06:50:18.230Z,5.90
2022-08-25T06:53:41.282Z,5.43
2022-08-25T06:57:05.978Z,5.72
2022-08-25T07:00:30.632Z,6.43
2022-08-25T07:03:59.539Z,5.28
2022-08-25T07:07:22.805Z,6.13
2022-08-25T07:10:46.939Z,5.60
2022-08-25T07:14:13.048Z,6.60
2022-08-25T07:17:36.021Z,5.25
2022-08-25T07:21:00.542Z,5.30
2022-08-25T07:24:23.731Z,5.82
2022-08-25T07:27:47.033Z,5.50
2022-08-25T07:31:10.218Z,5.80
2022-08-25T07:34:52.163Z,6.13
2022-08-25T07:38:20.690Z,5.25
2022-08-25T07:41:43.990Z,5.13
2022-08-25T07:45:08.360Z,5.72
2022-08-25T07:48:31.340Z,4.68
2022-08-25T07:52:03.777Z,6.03
2022-08-25T07:55:31.354Z,5.63
2022-08-25T07:58:54.326Z,4.93
2022-08-25T08:02:19.001Z,4.75
2022-08-25T08:05:42.682Z,4.85
2022-08-25T08:09:05.882Z,4.95
2022-08-25T08:12:30.288Z,5.47
2022-08-25T08:15:54.281Z,5.40
2022-08-25T08:19:17.548Z,6.05
2022-08-25T08:22:46.239Z,4.63
2022-08-25T08:26:09.342Z,5.93
2022-08-25T08:29:34.005Z,5.53
2022-08-25T08:33:13.520Z,5.03
2022-08-25T08:36:36.568Z,4.43
2022-08-25T08:40:01.491Z,4.93
2022-08-25T08:43:29.302Z,5.05
2022-08-25T08:47:04.796Z,4.70
2022-08-25T08:50:38.797Z,5.22
2022-08-25T08:54:15.438Z,4.28
2022-08-25T09:01:18.737Z,4.75
2022-08-25T09:04:46.977Z,4.78
2022-08-25T09:08:14.694Z,4.65
2022-08-25T09:11:55.588Z,5.13
2022-08-25T09:15:49.992Z,5.43
2022-08-25T09:19:27.113Z,4.97
2022-08-25T09:22:57.534Z,5.15
2022-08-25T09:26:31.427Z,4.90
2022-08-25T09:30:04.557Z,5.30
2022-08-25T09:33:31.161Z,5.00
2022-08-25T09:36:58.610Z,4.78
2022-08-25T09:40:24.627Z,5.30
2022-08-25T09:43:55.151Z,5.47
2022-08-25T09:47:24.537Z,6.00
2022-08-25T09:50:47.703Z,5.13
2022-08-25T09:54:21.681Z,5.22
2022-08-25T09:57:52.747Z,5.30
2022-08-25T10:01:18.401Z,5.65
2022-08-25T10:04:43.751Z,5.35
2022-08-25T10:08:14.567Z,5.47
2022-08-25T10:11:46.031Z,6.15
2022-08-25T10:15:29.970Z,5.60
2022-08-25T10:19:09.982Z,5.57
2022-08-25T10:22:34.273Z,5.60
2022-08-25T10:26:04.285Z,5.18
2022-08-25T10:29:41.050Z,4.95
2022-08-25T10:33:18.067Z,4.57
2022-08-25T10:36:50.683Z,5.13
2022-08-25T10:40:22.178Z,5.35
2022-08-25T10:43:53.449Z,5.57
2022-08-25T10:47:45.985Z,4.93
2022-08-25T10:51:25.796Z,4.93
2022-08-25T10:54:58.207Z,4.50
2022-08-25T10:58:30.705Z,5.15
2022-08-25T11:02:12.419Z,4.65
2022-08-25T11:05:42.057Z,4.78
2022-08-25T11:09:11.228Z,4.93
2022-08-25T11:12:39.914Z,5.07
2022-08-25T11:16:17.429Z,5.20
2022-08-25T11:19:45.268Z,4.75
2022-08-25T11:23:15.873Z,4.97
2022-08-25T11:26:47.215Z,4.80
2022-08-25T11:30:13.852Z,5.28
2022-08-25T11:33:39.458Z,4.60
2022-08-25T11:37:11.259Z,4.45
2022-08-25T11:40:46.528Z,4.90
2022-08-25T11:44:28.578Z,4.50
2022-08-25T11:48:15.720Z,5.05
2022-08-25T11:51:43.638Z,4.57
2022-08-25T11:55:11.274Z,4.60
2022-08-25T11:58:40.798Z,4.05
2022-08-25T12:02:05.261Z,4.35
2022-08-25T12:06:13.570Z,4.28
2022-08-25T12:10:13.934Z,3.88
2022-08-25T12:13:49.355Z,4.03
2022-08-25T12:17:27.621Z,4.15
2022-08-25T12:21:31.930Z,4.45
2022-08-25T12:24:58.252Z,4.47
2022-08-25T12:28:48.061Z,3.95
2022-08-25T12:32:29.797Z,4.22
2022-08-25T12:35:57.879Z,3.75
2022-08-25T12:39:30.559Z,4.00
2022-08-25T12:43:04.371Z,4.30
2022-08-25T12:46:38.545Z,4.05
2022-08-25T12:50:36.055Z,3.70
2022-08-25T12:54:15.952Z,4.10
2022-08-25T12:57:44.518Z,4.55
2022-08-25T13:01:35.457Z,4.28
2022-08-25T13:05:23.485Z,3.92
2022-08-25T13:09:31.594Z,4.47
2022-08-25T13:13:04.929Z,3.50
2022-08-25T13:16:30.743Z,4.50
2022-08-25T13:19:53.760Z,3.90
2022-08-25T13:23:22.482Z,3.78
2022-08-25T13:26:52.336Z,3.72
2022-08-25T13:30:25.084Z,3.83
2022-08-25T13:33:54.739Z,4.07
2022-08-25T13:37:29.641Z,3.38
2022-08-25T13:41:04.234Z,3.35
2022-08-25T13:44:38.950Z,3.55
2022-08-25T13:48:01.925Z,3.88
2022-08-25T13:51:31.536Z,3.28
2022-08-25T13:55:00.577Z,3.40
2022-08-25T13:58:38.658Z,3.50
2022-08-25T14:02:04.391Z,3.30
2022-08-25T14:05:37.765Z,3.28
2022-08-25T14:09:18.057Z,3.80
2022-08-25T14:12:46.324Z,3.85
2022-08-25T14:16:14.064Z,3.33
2022-08-25T14:19:45.600Z,3.63
2022-08-25T14:23:16.158Z,4.10
2022-08-25T14:26:54.128Z,2.80
2022-08-25T14:30:17.937Z,3.25
2022-08-25T14:33:56.858Z,3.70
2022-08-25T14:37:25.467Z,4.07
2022-08-25T14:40:49.795Z,3.28
2022-08-25T14:44:14.666Z,3.40
2022-08-25T14:47:38.214Z,3.42
2022-08-25T14:51:01.667Z,3.22
2022-08-25T14:54:28.625Z,3.22
2022-08-25T14:57:52.230Z,3.38
2022-08-25T15:01:18.802Z,3.50
2022-08-25T15:04:55.060Z,3.25
2022-08-25T15:08:36.044Z,3.60
2022-08-25T15:12:00.420Z,3.85
2022-08-25T15:15:26.305Z,3.33
2022-08-25T15:18:49.709Z,3.35
2022-08-25T15:22:12.735Z,3.10
2022-08-25T15:25:36.551Z,3.55
2022-08-25T15:29:01.031Z,3.42
2022-08-25T15:32:24.886Z,3.20
2022-08-25T15:35:50.929Z,3.50
2022-08-25T15:39:15.989Z,3.45
2022-08-25T15:42:42.935Z,3.17
2022-08-25T15:46:14.198Z,2.67
2022-08-25T15:49:37.430Z,3.03
2022-08-25T15:53:00.576Z,3.03
2022-08-25T15:56:26.923Z,2.60
2022-08-25T15:59:50.041Z,3.45
2022-08-25T16:03:14.729Z,3.30
2022-08-25T16:06:38.458Z,2.75
2022-08-25T16:10:01.848Z,3.70
2022-08-25T16:13:26.547Z,2.50
2022-08-25T16:16:49.657Z,3.10
2022-08-25T16:20:17.120Z,2.80
2022-08-25T16:23:41.278Z,2.85
2022-08-25T16:27:11.334Z,3.13
2022-08-25T16:30:34.977Z,2.92
2022-08-25T16:33:59.054Z,2.80
2022-08-25T16:37:23.472Z,3.08
2022-08-25T16:40:46.987Z,3.05
2022-08-25T16:44:11.082Z,2.72
2022-08-25T16:47:38.118Z,3.00
2022-08-25T16:51:01.353Z,2.88
2022-08-25T16:54:43.354Z,2.50
2022-08-25T16:58:06.608Z,2.50
2022-08-25T17:01:31.458Z,3.08
2022-08-25T17:04:54.809Z,3.08
2022-08-25T17:08:30.671Z,2.45
2022-08-25T17:11:57.112Z,2.92
2022-08-25T17:15:23.759Z,2.67
2022-08-25T17:18:47.850Z,3.35
2022-08-25T17:22:14.085Z,3.70
2022-08-25T17:25:41.262Z,4.18
2022-08-25T17:29:07.679Z,4.10
2022-08-25T17:32:31.989Z,3.30
2022-08-25T17:35:57.655Z,3.47
2022-08-25T17:39:22.398Z,3.50
2022-08-25T17:42:45.565Z,3.17
2022-08-25T17:46:10.693Z,3.70
2022-08-25T17:49:33.745Z,3.22
2022-08-25T17:52:56.777Z,3.25
2022-08-25T17:56:23.202Z,3.17
2022-08-25T17:59:46.239Z,3.33
2022-08-25T18:03:10.650Z,3.35
2022-08-25T18:06:33.674Z,2.35
2022-08-25T18:09:56.683Z,3.72
2022-08-25T18:13:19.859Z,3.10
2022-08-25T18:16:42.921Z,3.60
2022-08-25T18:20:10.339Z,2.65
2022-08-25T18:23:33.375Z,3.22
2022-08-25T18:26:56.521Z,2.97
2022-08-25T18:30:20.266Z,3.47
2022-08-25T18:33:44.867Z,3.63
2022-08-25T18:37:23.335Z,3.28
2022-08-25T18:40:46.573Z,2.70
2022-08-25T18:44:10.954Z,3.10
2022-08-25T18:47:34.513Z,3.00
2022-08-25T18:50:57.771Z,3.25
2022-08-25T18:54:23.700Z,3.78
2022-08-25T18:57:47.723Z,3.17
2022-08-25T19:01:13.930Z,3.35
2022-08-25T19:04:37.312Z,4.28
2022-08-25T19:08:01.029Z,3.17
2022-08-25T19:11:27.341Z,3.80
2022-08-25T19:14:52.947Z,3.25
2022-08-25T19:18:17.234Z,3.30
2022-08-25T19:21:41.075Z,3.70
2022-08-25T19:25:05.336Z,3.65
2022-08-25T19:28:29.880Z,3.00
2022-08-25T19:31:53.388Z,2.75
2022-08-25T19:35:22.360Z,3.35
2022-08-25T19:38:45.811Z,3.13
2022-08-25T19:42:37.360Z,3.53
2022-08-25T19:45:56.230Z,3.30
2022-08-25T19:49:23.197Z,3.58
2022-08-25T19:52:46.918Z,3.53
2022-08-25T19:56:14.470Z,3.40
2022-08-25T19:59:43.342Z,3.42
2022-08-25T20:03:09.168Z,3.60
2022-08-25T20:06:33.137Z,3.05
2022-08-25T20:09:56.916Z,3.15
2022-08-25T20:13:21.145Z,3.42
2022-08-25T20:16:47.022Z,3.33
2022-08-25T20:20:18.660Z,5.03
2022-08-25T20:23:59.999Z,5.38
2022-08-25T20:27:25.108Z,6.18
2022-08-25T20:30:48.182Z,5.55
2022-08-25T20:34:11.338Z,5.95
2022-08-25T20:37:38.572Z,6.35
2022-08-25T20:41:03.009Z,6.00
2022-08-25T20:44:26.086Z,6.72
2022-08-25T20:47:49.332Z,6.43
2022-08-25T20:51:13.950Z,6.43
2022-08-25T20:54:38.666Z,6.93
2022-08-25T20:58:01.779Z,5.93
2022-08-25T21:01:37.641Z,7.47
2022-08-25T21:05:01.817Z,6.85
2022-08-25T21:08:25.466Z,6.97
2022-08-25T21:11:51.410Z,6.78
2022-08-25T21:15:17.036Z,6.10
2022-08-25T21:18:41.387Z,6.57
2022-08-25T21:22:11.783Z,7.35
2022-08-25T21:25:40.946Z,6.95
2022-08-25T21:29:07.833Z,6.03
2022-08-25T21:32:31.432Z,7.30
2022-08-25T21:35:54.575Z,7.35
2022-08-25T21:39:17.690Z,7.03
2022-08-25T21:42:41.456Z,6.65
2022-08-25T21:46:06.926Z,6.53
2022-08-25T21:49:30.554Z,7.13
2022-08-25T21:53:00.441Z,7.28
2022-08-25T21:56:26.283Z,6.03
2022-08-25T21:59:49.415Z,7.30
2022-08-25T22:03:13.795Z,6.55
2022-08-25T22:06:37.014Z,7.35
2022-08-25T22:10:00.034Z,6.47
2022-08-25T22:13:23.108Z,7.30
2022-08-25T22:16:46.204Z,6.95
2022-08-25T22:20:12.274Z,6.93
2022-08-25T22:23:44.514Z,7.22
2022-08-25T22:27:15.674Z,6.88
2022-08-25T22:30:40.421Z,6.70
2022-08-25T22:34:04.276Z,7.68
2022-08-25T22:37:30.541Z,7.63
2022-08-25T22:40:53.589Z,7.05
2022-08-25T22:44:16.590Z,7.15
2022-08-25T22:47:41.432Z,6.60
2022-08-25T22:51:09.317Z,8.63
2022-08-25T22:54:34.014Z,8.48
2022-08-25T22:57:57.215Z,7.47
2022-08-25T23:01:21.401Z,7.80
2022-08-25T23:04:44.458Z,7.78
2022-08-25T23:08:07.711Z,7.78
2022-08-25T23:11:32.320Z,7.10
2022-08-25T23:14:56.236Z,7.03
2022-08-25T23:18:19.593Z,7.07
2022-08-25T23:22:00.623Z,6.80
2022-08-25T23:25:23.913Z,6.45
2022-08-25T23:28:49.517Z,7.53
2022-08-25T23:32:14.258Z,6.55
2022-08-25T23:35:37.521Z,7.28
2022-08-25T23:39:03.008Z,7.00
2022-08-25T23:42:27.229Z,6.45
2022-08-25T23:45:51.615Z,6.95
2022-08-25T23:49:14.675Z,7.18
2022-08-25T23:52:41.770Z,8.63
2022-08-25T23:56:06.093Z,6.88
2022-08-25T23:59:29.344Z,6.97
